Time;durP1;ratioP1;P1;durP2;ratioP2;P2;SDS_P1;SDS_P2;PMS_P1;PMS_P2;Temp;Humidity;BMP_temperature;BMP_pressure;BME280_temperature;BME280_humidity;BME280_pressure;Samples;Min_cycle;Max_cycle;Signal;HPM_P1;HPM_P2
2023/12/21 00:01:24;;;;;;;24.83;6.40;;;12.10;99.90;;;12.34;100.00;100604.97;4900375;29;20183;-69
2023/12/21 00:03:53;;;;;;;25.15;6.47;;;12.10;99.90;;;12.25;100.00;100592.69;4900423;29;20506;-69
2023/12/21 00:06:21;;;;;;;31.13;6.93;;;12.10;99.90;;;12.32;100.00;100588.19;4900297;29;20060;-70
2023/12/21 00:08:50;;;;;;;19.25;6.45;;;12.10;99.90;;;12.34;100.00;100597.88;4900429;29;20469;-70
2023/12/21 00:11:18;;;;;;;34.15;6.63;;;12.20;99.90;;;12.32;100.00;100585.53;4900028;29;20061;-70
2023/12/21 00:13:46;;;;;;;21.30;6.22;;;12.10;99.90;;;12.30;100.00;100574.06;4899397;29;20148;-70
2023/12/21 00:16:17;;;;;;;22.10;6.15;;;12.10;99.90;;;12.34;100.00;100578.44;4898425;29;20052;-70
2023/12/21 00:18:45;;;;;;;22.92;6.38;;;12.10;99.90;;;12.40;100.00;100576.56;4898343;29;20049;-70
2023/12/21 00:21:14;;;;;;;20.25;6.25;;;12.20;99.90;;;12.41;100.00;100567.69;4897118;29;20048;-71
2023/12/21 00:23:42;;;;;;;31.35;6.05;;;12.20;99.90;;;12.31;100.00;100576.69;4912711;29;20491;-70
2023/12/21 00:26:10;;;;;;;17.20;5.43;;;12.10;99.90;;;12.34;100.00;100551.91;4898113;29;20060;-70
2023/12/21 00:28:39;;;;;;;31.55;6.70;;;12.10;99.90;;;12.36;100.00;100551.00;4898111;29;20406;-70
2023/12/21 00:31:07;;;;;;;20.65;6.05;;;12.10;99.90;;;12.29;100.00;100527.25;4898068;29;20414;-70
2023/12/21 00:33:37;;;;;;;24.42;6.95;;;12.10;99.90;;;12.28;100.00;100528.13;4898080;29;20132;-71
2023/12/21 00:36:06;;;;;;;26.63;6.15;;;12.10;99.90;;;12.38;100.00;100543.88;4928412;29;20049;-70
2023/12/21 00:38:35;;;;;;;26.20;7.30;;;12.10;99.90;;;12.39;100.00;100513.78;4897997;29;20546;-71
2023/12/21 00:41:04;;;;;;;20.02;6.43;;;12.20;99.90;;;12.37;100.00;100514.72;4897809;29;20486;-68
2023/12/21 00:43:32;;;;;;;23.67;6.22;;;12.20;99.90;;;12.34;100.00;100520.97;4898218;29;20462;-68
2023/12/21 00:46:00;;;;;;;17.73;5.65;;;12.20;99.90;;;12.30;100.00;100502.47;4898069;29;20379;-68
2023/12/21 00:48:29;;;;;;;24.98;6.25;;;12.10;99.90;;;12.34;100.00;100520.09;4897827;29;20079;-68
2023/12/21 00:50:59;;;;;;;32.47;7.43;;;12.10;99.90;;;12.28;100.00;100509.59;4897756;29;20401;-68
2023/12/21 00:53:28;;;;;;;21.90;6.20;;;12.10;99.90;;;12.35;100.00;100497.97;4896415;29;20060;-68
2023/12/21 00:55:56;;;;;;;25.38;7.40;;;12.10;99.90;;;12.32;100.00;100493.59;4897678;29;20063;-68
2023/12/21 00:58:24;;;;;;;27.83;7.07;;;12.10;99.90;;;12.35;100.00;100503.28;4897519;29;20048;-67
2023/12/21 01:00:53;;;;;;;30.15;7.60;;;12.10;99.90;;;12.38;100.00;100504.09;4897605;29;20424;-68
2023/12/21 01:03:22;;;;;;;22.92;6.00;;;12.20;99.90;;;12.31;100.00;100491.84;4897429;29;20088;-68
2023/12/21 01:05:50;;;;;;;20.90;6.30;;;12.10;99.90;;;12.34;100.00;100490.91;4897012;29;20100;-67
2023/12/21 01:08:20;;;;;;;18.63;6.00;;;12.10;99.90;;;12.34;100.00;100482.97;4911288;29;20064;-67
2023/12/21 01:10:48;;;;;;;22.53;6.77;;;12.10;99.90;;;12.32;100.00;100482.09;4911493;29;20060;-68
2023/12/21 01:13:17;;;;;;;22.95;6.88;;;12.10;99.90;;;12.37;100.00;100474.94;4897402;29;20469;-68
2023/12/21 01:15:45;;;;;;;19.80;5.80;;;12.20;99.90;;;12.38;100.00;100452.81;4911900;29;20103;-68
2023/12/21 01:18:14;;;;;;;20.05;6.40;;;12.20;99.90;;;12.24;100.00;100468.09;4897182;29;20049;-68
2023/12/21 01:20:42;;;;;;;27.85;7.57;;;12.10;99.90;;;12.26;100.00;100466.31;4897068;29;20056;-68
2023/12/21 01:23:11;;;;;;;27.92;6.75;;;12.00;99.90;;;12.26;100.00;100461.00;4897359;29;20052;-68
2023/12/21 01:25:40;;;;;;;22.30;7.13;;;12.00;99.90;;;12.31;100.00;100451.19;4895925;29;20060;-68
2023/12/21 01:28:09;;;;;;;25.45;6.30;;;12.10;99.90;;;12.30;100.00;100454.75;4896979;29;20044;-68
2023/12/21 01:30:37;;;;;;;20.75;6.72;;;12.10;99.90;;;12.29;100.00;100461.81;4897292;29;20052;-69
2023/12/21 01:33:06;;;;;;;18.60;6.45;;;12.10;99.90;;;12.32;100.00;100461.78;4896832;29;20123;-70
2023/12/21 01:35:35;;;;;;;26.77;6.53;;;12.10;99.90;;;12.34;100.00;100452.00;4896941;29;20049;-70
2023/12/21 01:38:03;;;;;;;20.55;6.38;;;12.10;99.90;;;12.28;100.00;100443.28;4911252;29;20467;-69
2023/12/21 01:40:32;;;;;;;20.73;6.45;;;12.10;99.90;;;12.36;100.00;100449.31;4897419;29;20049;-70
2023/12/21 01:43:02;;;;;;;23.17;6.18;;;12.10;99.90;;;12.28;100.00;100443.28;4896728;29;20165;-69
2023/12/21 01:45:31;;;;;;;21.15;6.22;;;12.10;99.90;;;12.37;100.00;100449.28;4927082;29;20139;-70
2023/12/21 01:48:01;;;;;;;25.63;6.50;;;12.10;99.90;;;12.38;100.00;100443.09;4897165;29;20111;-70
2023/12/21 01:50:30;;;;;;;24.42;6.45;;;12.20;99.90;;;12.27;100.00;100415.88;4896624;29;20411;-70
2023/12/21 01:52:59;;;;;;;17.63;6.35;;;12.20;99.90;;;12.33;100.00;100422.88;4896658;29;20040;-70
2023/12/21 01:55:28;;;;;;;25.23;6.38;;;12.10;99.90;;;12.21;100.00;100417.78;4896568;29;20048;-69
2023/12/21 01:57:57;;;;;;;29.38;6.20;;;12.10;99.90;;;12.28;100.00;100416.78;4896447;29;20059;-69
2023/12/21 02:00:26;;;;;;;27.65;6.78;;;12.00;99.90;;;12.37;100.00;100417.47;4896407;29;20471;-69
2023/12/21 02:02:55;;;;;;;21.30;6.10;;;12.10;99.90;;;12.25;100.00;100403.59;4896394;29;20052;-69
2023/12/21 02:05:24;;;;;;;27.30;6.28;;;12.10;99.90;;;12.23;100.00;100416.00;4896601;29;20083;-70
2023/12/21 02:07:52;;;;;;;22.10;6.22;;;12.00;99.90;;;12.22;100.00;100415.09;4911025;29;20067;-69
2023/12/21 02:10:20;;;;;;;21.10;6.53;;;12.00;99.90;;;12.28;100.00;100404.38;4910856;29;20075;-69
2023/12/21 02:12:49;;;;;;;33.60;7.15;;;12.10;99.90;;;12.06;100.00;100362.41;4896465;29;20060;-70
2023/12/21 02:15:17;;;;;;;25.27;6.72;;;12.10;99.90;;;12.25;100.00;100400.94;4896418;29;20048;-69
2023/12/21 02:17:49;;;;;;;29.05;7.85;;;12.00;99.90;;;12.30;100.00;100385.78;4896033;29;20095;-69
2023/12/21 02:20:19;;;;;;;29.23;7.53;;;12.10;99.90;;;12.18;100.00;100393.97;4896149;29;20101;-70
2023/12/21 02:22:50;;;;;;;29.67;7.17;;;12.00;99.90;;;12.20;100.00;100389.50;4926454;29;20061;-69
2023/12/21 02:25:20;;;;;;;33.28;7.03;;;12.00;99.90;;;12.14;100.00;100381.66;4895986;29;20296;-69
2023/12/21 02:27:50;;;;;;;28.17;7.37;;;11.90;99.90;;;12.19;100.00;100374.53;4896129;29;20044;-69
2023/12/21 02:30:19;;;;;;;39.50;8.73;;;11.90;99.90;;;12.17;100.00;100369.25;4896104;29;20636;-69
2023/12/21 02:32:47;;;;;;;28.15;6.88;;;11.90;99.90;;;12.11;100.00;100348.16;4896080;29;20052;-70
2023/12/21 02:35:16;;;;;;;29.60;8.02;;;11.90;99.90;;;12.22;100.00;100361.19;4910460;29;20055;-69
2023/12/21 02:37:44;;;;;;;23.25;6.95;;;12.00;99.90;;;12.26;100.00;100355.81;4910171;29;20068;-70
2023/12/21 02:40:13;;;;;;;22.15;6.78;;;12.00;99.90;;;12.19;100.00;100335.63;4895925;29;20052;-69
2023/12/21 02:42:43;;;;;;;26.92;7.28;;;12.00;99.90;;;12.07;100.00;100332.34;4895995;29;20151;-70
2023/12/21 02:45:12;;;;;;;28.30;7.68;;;11.90;99.90;;;12.23;100.00;100363.81;4910503;29;20590;-69
2023/12/21 02:47:40;;;;;;;25.98;7.15;;;12.00;99.90;;;12.15;100.00;100355.16;4895865;29;20108;-69
2023/12/21 02:50:10;;;;;;;36.95;8.80;;;12.00;99.90;;;12.16;100.00;100350.72;4895808;29;20080;-69
2023/12/21 02:52:38;;;;;;;27.00;7.03;;;12.00;99.90;;;11.77;100.00;100268.41;4895713;29;20040;-69
2023/12/21 02:55:08;;;;;;;28.48;6.63;;;11.90;99.90;;;12.13;100.00;100332.22;4895731;29;20482;-70
2023/12/21 02:57:36;;;;;;;29.77;7.65;;;11.90;99.90;;;12.01;100.00;100292.69;4895773;29;20072;-69
2023/12/21 03:00:09;;;;;;;22.90;6.43;;;11.90;99.90;;;12.07;100.00;100296.09;4895521;29;20111;-70
2023/12/21 03:02:37;;;;;;;24.85;7.72;;;11.90;99.90;;;12.06;100.00;100274.94;4895635;29;20040;-69
2023/12/21 03:05:07;;;;;;;25.02;7.47;;;11.90;99.90;;;12.04;100.00;100290.00;4895674;29;20052;-69
2023/12/21 03:07:35;;;;;;;29.08;7.18;;;11.80;99.90;;;12.14;100.00;100278.28;4895770;29;20063;-70
2023/12/21 03:10:05;;;;;;;26.10;6.88;;;11.90;99.90;;;12.02;100.00;100266.16;4895564;29;20049;-69
2023/12/21 03:12:34;;;;;;;33.23;7.33;;;11.80;99.90;;;11.93;100.00;100255.75;4894153;29;20403;-70
2023/12/21 03:15:03;;;;;;;32.05;8.20;;;11.80;99.90;;;12.01;100.00;100263.53;4895610;29;20330;-69
2023/12/21 03:17:33;;;;;;;20.75;6.65;;;11.80;99.90;;;12.06;100.00;100267.84;4910193;29;20112;-69
2023/12/21 03:20:03;;;;;;;25.05;7.35;;;11.80;99.90;;;12.18;100.00;100256.09;4895772;29;20076;-69
2023/12/21 03:22:32;;;;;;;33.53;6.85;;;11.90;99.90;;;12.13;100.00;100247.38;4895637;29;20139;-71
2023/12/21 03:25:00;;;;;;;28.52;7.35;;;11.90;99.90;;;12.07;100.00;100235.13;4895547;29;20483;-69
2023/12/21 03:27:29;;;;;;;25.58;6.32;;;11.80;99.90;;;12.01;100.00;100239.69;4895428;29;20076;-69
2023/12/21 03:29:57;;;;;;;27.58;6.47;;;11.80;99.90;;;12.04;100.00;100258.19;4926773;29;20113;-70
2023/12/21 03:32:25;;;;;;;26.77;7.43;;;11.80;99.90;;;12.14;100.00;100259.72;4899392;29;20403;-70
2023/12/21 03:34:56;;;;;;;27.30;7.03;;;11.90;99.90;;;11.88;100.00;100224.94;4899079;29;20048;-69
2023/12/21 03:37:27;;;;;;;29.13;6.88;;;11.90;99.90;;;12.07;100.00;100228.97;4899257;29;20498;-69
2023/12/21 03:39:56;;;;;;;;;;;11.80;99.90;;;11.84;100.00;100162.31;4899565;29;20127;-69
2023/12/21 03:42:25;;;;;;;22.60;6.82;;;11.90;99.90;;;12.17;100.00;100207.53;4899135;29;19927;-69
2023/12/21 03:44:53;;;;;;;22.48;5.85;;;11.90;99.90;;;12.05;100.00;100205.13;4898847;29;20049;-69
2023/12/21 03:47:22;;;;;;;27.60;7.57;;;11.80;99.90;;;12.12;100.00;100208.50;4898971;29;20056;-69
2023/12/21 03:49:50;;;;;;;24.00;6.53;;;11.90;99.90;;;12.05;100.00;100213.09;4899189;29;20530;-70
2023/12/21 03:52:20;;;;;;;24.52;6.78;;;11.80;99.90;;;12.10;100.00;100207.69;4898787;29;20458;-69
2023/12/21 03:54:48;;;;;;;23.93;6.70;;;11.80;99.90;;;11.74;100.00;100136.00;4897520;29;20060;-69
2023/12/21 03:57:17;;;;;;;23.17;5.88;;;11.90;99.90;;;12.03;100.00;100200.75;4898857;29;20048;-69
2023/12/21 03:59:45;;;;;;;25.85;6.45;;;11.80;99.90;;;12.11;100.00;100193.53;4898677;29;20040;-69
2023/12/21 04:02:14;;;;;;;23.38;7.78;;;11.90;99.90;;;12.17;100.00;100183.69;4898585;29;20079;-69
2023/12/21 04:04:42;;;;;;;19.00;6.32;;;11.90;99.90;;;12.16;100.00;100157.16;4898925;29;20053;-69
2023/12/21 04:07:11;;;;;;;21.38;5.47;;;11.90;99.90;;;12.21;100.00;100163.25;4913150;29;20052;-69
2023/12/21 04:09:40;;;;;;;23.90;6.38;;;12.00;99.90;;;12.07;100.00;100150.31;4898458;29;20049;-69
2023/12/21 04:12:09;;;;;;;23.63;6.67;;;11.90;99.90;;;12.12;100.00;100142.25;4898714;29;20056;-69
2023/12/21 04:14:37;;;;;;;42.20;7.93;;;11.90;99.90;;;12.09;100.00;100144.97;4898327;29;20292;-69
2023/12/21 04:17:06;;;;;;;25.20;6.78;;;11.80;99.90;;;12.08;100.00;100130.84;4913047;29;20056;-69
2023/12/21 04:19:36;;;;;;;25.98;6.53;;;11.80;99.90;;;12.07;100.00;100126.47;4898230;29;20053;-69
2023/12/21 04:22:04;;;;;;;28.05;6.97;;;11.80;99.90;;;11.85;100.00;100092.50;4898648;29;20447;-69
2023/12/21 04:24:33;;;;;;;25.98;6.75;;;11.80;99.90;;;12.02;100.00;100111.56;4898317;29;20108;-69
2023/12/21 04:27:03;;;;;;;26.65;7.13;;;11.80;99.90;;;12.13;100.00;100102.47;4898468;29;20414;-69
2023/12/21 04:29:31;;;;;;;23.45;7.03;;;11.80;99.90;;;12.10;100.00;100113.13;4898252;29;20060;-70
2023/12/21 04:32:00;;;;;;;20.85;7.07;;;11.90;99.90;;;12.03;100.00;100106.22;4898206;29;20413;-69
2023/12/21 04:34:28;;;;;;;24.35;6.93;;;11.80;99.90;;;12.03;100.00;100097.41;4898163;29;20047;-69
2023/12/21 04:36:57;;;;;;;26.90;6.40;;;11.80;99.90;;;12.07;100.00;100109.66;4912414;29;20075;-69
2023/12/21 04:39:25;;;;;;;22.48;6.25;;;11.80;99.90;;;12.06;100.00;100108.78;4897898;29;20044;-69
2023/12/21 04:41:53;;;;;;;21.23;6.53;;;11.90;99.90;;;12.14;100.00;100100.66;4895786;29;20127;-69
2023/12/21 04:44:23;;;;;;;22.65;6.03;;;11.90;99.90;;;12.17;100.00;100085.59;4897833;29;20076;-69
2023/12/21 04:46:51;;;;;;;23.10;6.00;;;11.90;99.90;;;12.03;100.00;100087.66;4898539;29;20055;-69
2023/12/21 04:49:22;;;;;;;19.55;5.95;;;11.80;99.90;;;11.95;100.00;100083.44;4897823;29;20123;-69
2023/12/21 04:51:51;;;;;;;22.38;5.60;;;11.70;99.90;;;11.97;100.00;100061.31;4897923;29;20067;-69
2023/12/21 04:54:19;;;;;;;24.73;6.40;;;11.80;99.90;;;12.13;100.00;100073.31;4897705;29;20041;-70
2023/12/21 04:56:48;;;;;;;28.40;6.22;;;11.90;99.90;;;12.13;100.00;100075.97;4912153;29;20080;-70
2023/12/21 04:59:16;;;;;;;19.50;5.60;;;11.90;99.90;;;12.19;100.00;100090.84;4897909;29;20082;-69
2023/12/21 05:01:50;;;;;;;20.77;5.70;;;11.90;99.90;;;12.16;100.00;100086.47;4897391;29;20128;-70
2023/12/21 05:04:18;;;;;;;25.25;6.18;;;11.90;99.90;;;12.11;100.00;100074.25;4897498;29;20131;-70
2023/12/21 05:06:46;;;;;;;24.60;6.10;;;11.90;99.90;;;12.09;100.00;100063.69;4897435;29;20051;-69
2023/12/21 05:09:15;;;;;;;23.73;5.95;;;11.90;99.90;;;12.13;100.00;100045.91;4897474;29;20052;-69
2023/12/21 05:11:43;;;;;;;31.02;6.45;;;11.90;99.90;;;12.19;100.00;100040.47;4897494;29;20080;-69
2023/12/21 05:14:11;;;;;;;27.17;6.32;;;11.90;99.90;;;12.09;100.00;100038.94;4897264;29;20052;-69
2023/12/21 05:16:40;;;;;;;23.20;6.78;;;11.90;99.90;;;12.00;100.00;100008.22;4897457;29;20050;-70
2023/12/21 05:19:10;;;;;;;22.83;5.82;;;11.80;99.90;;;12.01;100.00;100040.91;4927552;29;20071;-70
2023/12/21 05:21:39;;;;;;;21.77;6.07;;;11.80;99.90;;;12.04;100.00;100035.53;4897495;29;20081;-69
2023/12/21 05:24:07;;;;;;;23.73;6.45;;;11.80;99.90;;;12.05;100.00;100054.06;4897222;29;20051;-70
2023/12/21 05:26:35;;;;;;;26.02;6.40;;;11.80;99.90;;;11.89;100.00;100030.59;4897028;29;20080;-70
2023/12/21 05:29:04;;;;;;;22.30;6.32;;;11.80;99.90;;;12.06;100.00;100041.69;4911598;29;20053;-69
2023/12/21 05:31:34;;;;;;;22.23;6.40;;;11.80;99.90;;;12.04;100.00;100027.59;4911723;29;20589;-69
2023/12/21 05:34:02;;;;;;;27.30;6.10;;;11.80;99.90;;;12.08;100.00;100037.22;4897025;29;20044;-69
2023/12/21 05:36:32;;;;;;;25.25;7.22;;;11.80;99.90;;;12.07;100.00;100035.47;4896824;29;20293;-69
2023/12/21 05:39:03;;;;;;;22.75;6.03;;;11.80;99.90;;;12.08;100.00;100035.41;4896968;29;20053;-69
2023/12/21 05:41:44;;;;;;;25.48;5.70;;;11.90;99.90;;;11.93;100.00;99988.09;4896875;29;20048;-69
2023/12/21 05:44:13;;;;;;;24.67;6.53;;;11.90;99.90;;;12.05;100.00;100006.34;4897033;29;20052;-70
2023/12/21 05:46:42;;;;;;;21.85;6.18;;;11.80;99.90;;;12.06;100.00;99986.88;4896828;29;20550;-69
2023/12/21 05:49:11;;;;;;;24.77;5.75;;;11.90;99.90;;;12.21;100.00;100001.53;4896777;29;20055;-69
2023/12/21 05:51:41;;;;;;;16.67;5.72;;;12.00;99.90;;;12.21;100.00;99997.13;4895539;29;20044;-69
2023/12/21 05:54:09;;;;;;;14.27;5.65;;;12.00;99.90;;;12.27;100.00;100012.00;4896208;29;20056;-70
2023/12/21 05:56:38;;;;;;;18.20;6.18;;;12.00;99.90;;;12.29;100.00;99997.78;4896550;29;20045;-69
2023/12/21 05:59:06;;;;;;;18.73;6.00;;;12.10;99.90;;;12.34;100.00;100001.19;4911019;29;20194;-69
2023/12/21 06:01:35;;;;;;;19.45;5.95;;;12.10;99.90;;;12.33;100.00;99975.56;4896337;29;20068;-69
2023/12/21 06:04:04;;;;;;;21.88;6.18;;;12.20;99.90;;;12.37;100.00;99971.94;4896355;29;20139;-70
2023/12/21 06:06:32;;;;;;;22.63;7.07;;;12.20;99.90;;;12.40;100.00;99977.16;4896301;29;20048;-70
2023/12/21 06:09:02;;;;;;;19.52;6.25;;;12.20;99.90;;;12.50;100.00;99961.88;4896331;29;20044;-69
2023/12/21 06:11:31;;;;;;;18.25;4.95;;;12.30;99.90;;;12.34;100.00;99965.84;4896221;29;20060;-69
2023/12/21 06:13:59;;;;;;;22.92;6.15;;;12.20;99.90;;;12.40;100.00;99933.88;4896339;29;20048;-69
2023/12/21 06:16:28;;;;;;;20.65;5.68;;;12.20;99.90;;;12.32;100.00;99947.34;4896213;29;20052;-70
2023/12/21 06:18:56;;;;;;;20.52;5.63;;;12.20;99.90;;;12.36;100.00;99948.13;4896135;29;20044;-69
2023/12/21 06:21:25;;;;;;;25.17;6.97;;;12.10;99.90;;;12.31;100.00;99932.31;4896065;29;20076;-70
2023/12/21 06:23:53;;;;;;;22.58;5.90;;;12.10;99.90;;;12.26;100.00;99925.41;4896120;29;20136;-70
2023/12/21 06:26:23;;;;;;;22.98;6.10;;;12.10;99.90;;;12.26;100.00;99909.50;4896206;29;20124;-70
2023/12/21 06:28:51;;;;;;;16.90;5.83;;;12.00;99.90;;;12.25;100.00;99902.47;4896030;29;20072;-69
2023/12/21 06:31:20;;;;;;;26.90;6.03;;;12.00;99.90;;;12.26;100.00;99902.41;4895922;29;20308;-69
2023/12/21 06:33:49;;;;;;;25.80;6.53;;;12.00;99.90;;;11.53;100.00;99794.81;4896032;29;20059;-69
2023/12/21 06:36:17;;;;;;;22.25;5.55;;;12.10;99.90;;;12.25;100.00;99907.75;4896184;29;20127;-70
2023/12/21 06:38:46;;;;;;;20.83;5.97;;;12.10;99.90;;;12.25;100.00;99890.06;4896025;29;20052;-69
2023/12/21 06:41:14;;;;;;;15.75;5.25;;;12.10;99.90;;;12.31;100.00;99929.66;4910534;29;20687;-69
2023/12/21 06:43:44;;;;;;;17.77;5.20;;;12.00;99.90;;;12.36;100.00;99906.56;4895602;29;20049;-69
2023/12/21 06:46:13;;;;;;;16.23;4.85;;;12.20;99.90;;;12.18;100.00;99892.91;4895660;29;20525;-69
2023/12/21 06:48:42;;;;;;;19.65;5.85;;;12.10;99.90;;;12.24;100.00;99895.41;4896009;29;20048;-69
2023/12/21 06:51:12;;;;;;;26.88;6.35;;;12.00;99.90;;;12.23;100.00;99898.97;4895755;29;20080;-69
2023/12/21 06:53:41;;;;;;;22.35;5.70;;;12.00;99.90;;;12.14;100.00;99868.28;4896229;29;20048;-69
2023/12/21 06:56:10;;;;;;;23.23;6.88;;;11.90;99.90;;;12.20;100.00;99883.13;4895960;29;20076;-69
2023/12/21 06:59:00;;;;;;;30.02;6.35;;;11.90;99.90;;;12.10;100.00;99860.47;4895850;29;20048;-69
2023/12/21 07:01:29;;;;;;;28.10;7.17;;;11.90;99.90;;;11.70;100.00;99792.63;4895795;29;20092;-69
2023/12/21 07:03:59;;;;;;;33.92;7.57;;;11.90;99.90;;;12.18;100.00;99842.53;4895581;29;20505;-69
2023/12/21 07:06:27;;;;;;;30.75;7.35;;;12.00;99.90;;;12.11;100.00;99843.63;4899531;29;20149;-69
2023/12/21 07:08:56;;;;;;;22.20;6.75;;;11.90;99.90;;;11.85;100.00;99803.69;4899583;29;20100;-69
2023/12/21 07:11:24;;;;;;;20.65;6.40;;;11.80;99.90;;;12.02;100.00;99834.13;4899358;29;20503;-69
2023/12/21 07:13:54;;;;;;;41.15;8.63;;;11.80;99.90;;;12.01;100.00;99815.63;4898268;29;20065;-69
2023/12/21 07:16:24;;;;;;;29.67;6.30;;;11.80;99.90;;;11.95;100.00;99815.78;4899396;29;20072;-69
2023/12/21 07:18:52;;;;;;;30.60;7.22;;;11.70;99.90;;;11.89;100.00;99808.88;4899750;29;20052;-69
2023/12/21 07:21:21;;;;;;;24.33;5.97;;;11.70;99.90;;;11.83;100.00;99802.91;4899213;29;20546;-70
2023/12/21 07:23:49;;;;;;;29.10;6.70;;;11.70;99.90;;;11.99;100.00;99828.06;4899449;29;20073;-69
2023/12/21 07:26:18;;;;;;;28.38;7.05;;;11.80;99.90;;;11.98;100.00;99831.63;4899056;29;20076;-69
2023/12/21 07:28:46;;;;;;;31.23;7.10;;;11.70;99.90;;;11.98;100.00;99799.84;4899412;29;20075;-70
2023/12/21 07:31:15;;;;;;;21.80;6.15;;;11.70;99.90;;;11.92;100.00;99810.59;4899242;29;20048;-69
2023/12/21 07:33:46;;;;;;;30.63;7.00;;;11.70;99.90;;;11.91;100.00;99814.13;4899217;29;20053;-69
2023/12/21 07:36:16;;;;;;;26.92;7.07;;;11.60;99.90;;;11.86;100.00;99795.72;4899091;29;20052;-69
2023/12/21 07:38:44;;;;;;;21.25;5.82;;;11.70;99.90;;;11.54;100.00;99738.28;4899046;29;20079;-69
2023/12/21 07:41:13;;;;;;;25.17;6.45;;;11.70;99.90;;;12.02;100.00;99817.38;4898778;29;20113;-69
2023/12/21 07:43:42;;;;;;;26.55;5.93;;;11.80;99.90;;;12.00;100.00;99816.56;4898925;29;20127;-69
2023/12/21 07:46:10;;;;;;;23.15;5.53;;;11.80;99.90;;;12.00;100.00;99805.97;4898883;29;20056;-69
2023/12/21 07:48:39;;;;;;;17.73;6.13;;;11.80;99.90;;;11.95;100.00;99779.56;4898802;29;20087;-71
2023/12/21 07:51:10;;;;;;;24.92;6.53;;;11.80;99.90;;;11.90;100.00;99772.66;4899050;29;20052;-67
2023/12/21 07:53:39;;;;;;;24.90;6.80;;;11.80;99.90;;;11.92;100.00;99794.69;4899092;29;20048;-64
2023/12/21 07:56:09;;;;;;;25.20;5.40;;;11.70;99.90;;;11.96;100.00;99793.69;4898611;29;20049;-69
2023/12/21 07:58:38;;;;;;;26.83;6.05;;;11.70;99.90;;;11.97;100.00;99777.75;4898865;29;20402;-68
2023/12/21 08:01:07;;;;;;;21.25;5.60;;;11.80;99.90;;;11.84;100.00;99763.09;4898441;29;20049;-68
2023/12/21 08:03:36;;;;;;;17.23;6.20;;;11.80;99.90;;;12.07;100.00;99781.88;4898659;29;20056;-70
2023/12/21 08:06:05;;;;;;;25.25;6.50;;;11.80;99.90;;;12.14;100.00;99756.06;4913034;29;20422;-69
2023/12/21 08:08:35;;;;;;;19.10;6.32;;;11.90;99.90;;;12.24;100.00;99774.31;4898530;29;20052;-67
2023/12/21 08:11:16;;;;;;;25.88;5.80;;;12.00;99.90;;;12.17;100.00;99767.47;4898357;29;20096;-67
2023/12/21 08:13:46;;;;;;;25.40;6.85;;;12.00;99.90;;;12.24;100.00;99768.16;4898390;29;20055;-66
2023/12/21 08:16:17;;;;;;;23.42;6.15;;;12.00;99.90;;;12.20;100.00;99777.09;4898030;29;20041;-67
2023/12/21 08:18:46;;;;;;;;;;;12.00;99.90;;;12.33;100.00;99759.94;4929229;29;20063;-66
2023/12/21 08:21:15;;;;;;;24.55;5.93;;;12.10;99.90;;;12.39;100.00;99802.16;4898339;29;19927;-69
2023/12/21 08:23:46;;;;;;;23.20;6.35;;;12.10;99.90;;;12.47;100.00;99776.28;4898312;29;20104;-70
2023/12/21 08:26:20;;;;;;;25.58;6.13;;;12.20;99.90;;;12.39;100.00;99752.66;4896833;29;20044;-69
2023/12/21 08:28:49;;;;;;;28.40;5.90;;;12.30;99.90;;;12.50;100.00;99729.31;4898115;29;20112;-69
2023/12/21 08:31:25;;;;;;;21.75;6.25;;;12.30;99.90;;;12.50;100.00;99762.97;4897944;29;20075;-68
2023/12/21 08:33:54;;;;;;;26.60;6.78;;;12.30;99.90;;;12.55;100.00;99769.88;4898209;29;20075;-70
2023/12/21 08:36:23;;;;;;;20.98;5.88;;;12.30;99.90;;;12.65;100.00;99781.94;4897941;29;20040;-70
2023/12/21 08:38:53;;;;;;;29.67;6.78;;;12.40;99.90;;;12.69;100.00;99780.06;4897795;29;20049;-72
2023/12/21 08:41:24;;;;;;;23.50;6.47;;;12.50;99.90;;;12.62;100.00;99762.56;4898091;29;20052;-73
2023/12/21 08:43:54;;;;;;;20.45;6.10;;;12.40;99.90;;;12.68;100.00;99780.97;4897973;29;20049;-69
2023/12/21 08:46:24;;;;;;;23.40;6.15;;;12.50;99.90;;;12.67;100.00;99768.63;4897935;29;20052;-72
2023/12/21 08:48:52;;;;;;;22.35;5.70;;;12.50;99.90;;;12.66;100.00;99772.16;4912445;29;20493;-70
2023/12/21 08:51:22;;;;;;;26.13;6.88;;;12.50;99.90;;;12.59;100.00;99754.72;4897740;29;20071;-69
2023/12/21 08:53:52;;;;;;;24.20;5.75;;;12.40;99.90;;;12.62;100.00;99759.91;4897916;29;20052;-72
2023/12/21 08:56:22;;;;;;;20.93;6.60;;;12.40;99.90;;;12.69;100.00;99742.91;4928073;29;20116;-70
2023/12/21 08:58:53;;;;;;;26.50;6.50;;;12.50;99.90;;;12.62;100.00;99759.91;4897815;29;20048;-72
2023/12/21 09:01:21;;;;;;;22.85;5.68;;;12.50;99.90;;;12.67;100.00;99773.94;4897597;29;20080;-71
2023/12/21 09:03:50;;;;;;;27.00;7.03;;;12.50;99.90;;;12.58;100.00;99772.41;4897850;29;20052;-71
2023/12/21 09:06:18;;;;;;;24.90;6.55;;;12.40;99.90;;;12.63;100.00;99751.06;4897939;29;20094;-71
2023/12/21 09:08:47;;;;;;;23.08;6.30;;;12.40;99.90;;;12.70;100.00;99757.91;4897627;29;20053;-71
2023/12/21 09:11:20;;;;;;;16.63;5.38;;;12.50;99.90;;;12.63;100.00;99757.25;4897376;29;20064;-72
2023/12/21 09:13:49;;;;;;;16.42;5.40;;;12.50;99.90;;;12.57;100.00;99725.59;4897325;29;20048;-71
2023/12/21 09:16:18;;;;;;;22.00;5.65;;;12.40;99.90;;;12.61;100.00;99771.47;4897285;29;20072;-68
2023/12/21 09:18:47;;;;;;;16.17;4.40;;;12.40;99.90;;;12.62;100.00;99725.44;4897197;29;20059;-66
2023/12/21 09:21:15;;;;;;;15.30;4.90;;;12.50;99.90;;;12.63;100.00;99728.06;4897460;29;20075;-67
2023/12/21 09:23:45;;;;;;;17.70;4.88;;;12.50;99.90;;;12.69;100.00;99743.78;4897171;29;20159;-69
2023/12/21 09:26:13;;;;;;;17.88;5.38;;;12.50;99.90;;;12.66;100.00;99727.94;4897473;29;20123;-69
2023/12/21 09:28:43;;;;;;;18.48;5.57;;;12.50;99.90;;;12.65;100.00;99746.56;4896364;29;20131;-69
2023/12/21 09:31:12;;;;;;;16.70;5.10;;;12.50;99.90;;;12.61;100.00;99726.38;4897108;29;20049;-66
2023/12/21 09:33:43;;;;;;;20.20;6.03;;;12.50;99.90;;;12.64;100.00;99728.91;4895940;29;20413;-68
2023/12/21 09:36:12;;;;;;;20.02;4.97;;;12.50;99.90;;;12.67;100.00;99758.00;4897008;29;20047;-66
2023/12/21 09:38:41;;;;;;;18.30;5.75;;;12.50;99.90;;;12.72;100.00;99742.81;4896837;29;20052;-68
2023/12/21 09:41:10;;;;;;;24.52;5.72;;;12.50;99.90;;;12.72;100.00;99718.94;4896836;29;20160;-68
2023/12/21 09:43:43;;;;;;;25.23;5.78;;;12.60;99.90;;;12.71;100.00;99743.75;4896938;29;20406;-71
2023/12/21 09:46:13;;;;;;;19.60;5.82;;;12.50;99.90;;;12.74;100.00;99740.97;4896738;29;20044;-70
2023/12/21 09:48:44;;;;;;;29.20;5.80;;;12.60;99.90;;;12.74;100.00;99727.72;4896649;29;20063;-70
2023/12/21 09:51:15;;;;;;;24.05;5.90;;;12.60;99.90;;;12.69;100.00;99735.84;4896647;29;20292;-70
2023/12/21 09:53:44;;;;;;;30.98;6.97;;;12.50;99.90;;;12.71;100.00;99746.38;4896645;29;20130;-69
2023/12/21 09:56:14;;;;;;;20.80;5.32;;;12.50;99.90;;;12.66;100.00;99735.03;4896551;29;20383;-70
2023/12/21 09:58:46;;;;;;;23.92;6.03;;;12.60;99.90;;;12.74;100.00;99742.78;4927083;29;20561;-70
2023/12/21 10:01:14;;;;;;;22.05;6.03;;;12.60;99.90;;;12.74;100.00;99753.41;4896583;29;20055;-71
2023/12/21 10:03:44;;;;;;;23.92;6.22;;;12.60;99.90;;;12.69;100.00;99764.13;4896429;29;20439;-70
2023/12/21 10:06:13;;;;;;;21.98;5.88;;;12.50;99.90;;;12.59;100.00;99765.34;4896476;29;20056;-69
2023/12/21 10:08:42;;;;;;;22.60;6.50;;;12.40;99.90;;;12.69;100.00;99745.56;4895416;29;20057;-71
2023/12/21 10:11:10;;;;;;;26.35;6.15;;;12.50;99.90;;;12.63;100.00;99729.84;4897069;29;20100;-71